Time;durP1;ratioP1;P1;durP2;ratioP2;P2;SDS_P1;SDS_P2;PMS_P1;PMS_P2;Temp;Humidity;BMP_temperature;BMP_pressure;BME280_temperature;BME280_humidity;BME280_pressure;Samples;Min_cycle;Max_cycle;Signal;HPM_P1;HPM_P2
2022/04/03 00:00:52;;;;;;;8.20;3.92;;;;;;;;;;5036492;28;20052;-77
2022/04/03 00:03:18;;;;;;;7.88;5.00;;;;;;;;;;5054390;28;20440;-79
2022/04/03 00:05:43;;;;;;;6.30;4.10;;;;;;;;;;5053776;28;20029;-72
2022/04/03 00:08:09;;;;;;;10.85;5.13;;;;;;;;;;5052962;28;20021;-75
2022/04/03 00:10:36;;;;;;;7.30;4.80;;;;;;;;;;5034000;28;20098;-72
2022/04/03 00:13:02;;;;;;;6.72;4.28;;;;;;;;;;5051382;28;20341;-73
2022/04/03 00:15:27;;;;;;;9.63;6.90;;;;;;;;;;5034962;28;20056;-74
2022/04/03 00:17:52;;;;;;;8.25;5.10;;;;;;;;;;5054592;28;20078;-76
2022/04/03 00:20:19;;;;;;;9.45;5.35;;;;;;;;;;5044422;28;20033;-75
2022/04/03 00:22:48;;;;;;;8.10;5.47;;;;;;;;;;5048039;28;20035;-72
2022/04/03 00:25:14;;;;;;;11.05;4.93;;;;;;;;;;5054147;28;20036;-73
2022/04/03 00:27:39;;;;;;;9.82;5.82;;;;;;;;;;5050511;28;20360;-73
2022/04/03 00:30:05;;;;;;;8.23;5.10;;;;;;;;;;5051873;28;20040;-75
2022/04/03 00:32:30;;;;;;;9.18;5.28;;;;;;;;;;5054881;28;20036;-73
2022/04/03 00:34:56;;;;;;;9.93;6.20;;;;;;;;;;5042889;28;20020;-73
2022/04/03 00:37:21;;;;;;;11.15;7.25;;;;;;;;;;5056443;28;20025;-72
2022/04/03 00:39:47;;;;;;;8.77;6.15;;;;;;;;;;5053268;28;20082;-76
2022/04/03 00:42:12;;;;;;;9.23;6.25;;;;;;;;;;5047532;28;20053;-74
2022/04/03 00:44:37;;;;;;;13.10;6.43;;;;;;;;;;5038442;28;20071;-72
2022/04/03 00:47:03;;;;;;;9.18;5.70;;;;;;;;;;5044940;28;20503;-76
2022/04/03 00:49:29;;;;;;;9.30;5.78;;;;;;;;;;5053510;28;20037;-73
2022/04/03 00:51:55;;;;;;;10.80;6.28;;;;;;;;;;5051249;28;20067;-73
2022/04/03 00:54:20;;;;;;;13.95;6.85;;;;;;;;;;5053488;28;20059;-73
2022/04/03 00:56:46;;;;;;;7.30;4.32;;;;;;;;;;5043587;28;20078;-72
2022/04/03 00:59:12;;;;;;;7.45;4.57;;;;;;;;;;5044552;28;20064;-81
2022/04/03 01:01:41;;;;;;;9.07;5.57;;;;;;;;;;5053527;28;20231;-72
2022/04/03 01:04:07;;;;;;;11.03;5.30;;;;;;;;;;5044101;28;20028;-73
2022/04/03 01:06:33;;;;;;;14.63;7.68;;;;;;;;;;5037984;28;20024;-74
2022/04/03 01:08:58;;;;;;;14.05;7.47;;;;;;;;;;5032036;28;20826;-75
2022/04/03 01:11:24;;;;;;;10.23;5.60;;;;;;;;;;5053332;28;20437;-77
2022/04/03 01:13:51;;;;;;;9.80;5.10;;;;;;;;;;5052132;28;20048;-72
2022/04/03 01:16:16;;;;;;;7.18;4.78;;;;;;;;;;5048699;28;20029;-73
2022/04/03 01:18:42;;;;;;;7.18;5.40;;;;;;;;;;5051054;28;20024;-76
2022/04/03 01:21:07;;;;;;;10.30;6.57;;;;;;;;;;5037673;28;20448;-74
2022/04/03 01:23:32;;;;;;;9.75;6.20;;;;;;;;;;5046284;28;20313;-75
2022/04/03 01:25:58;;;;;;;11.20;6.10;;;;;;;;;;5052512;28;20181;-75
2022/04/03 01:28:23;;;;;;;8.15;5.10;;;;;;;;;;5043608;28;20060;-74
2022/04/03 01:30:49;;;;;;;5.38;4.45;;;;;;;;;;5025412;28;20036;-73
2022/04/03 01:33:15;;;;;;;7.50;4.40;;;;;;;;;;5050709;28;20349;-74
2022/04/03 01:35:41;;;;;;;6.47;4.88;;;;;;;;;;5032275;28;20363;-74
2022/04/03 01:38:06;;;;;;;6.45;5.00;;;;;;;;;;5053565;28;20103;-74
2022/04/03 01:40:35;;;;;;;5.38;4.18;;;;;;;;;;5035931;28;20027;-76
2022/04/03 01:44:10;;;;;;;7.13;4.93;;;;;;;;;;5134166;27;20376;-74
2022/04/03 01:46:37;;;;;;;7.10;5.40;;;;;;;;;;5115363;28;20035;-74
2022/04/03 01:49:02;;;;;;;9.30;5.63;;;;;;;;;;5114912;28;20035;-73
2022/04/03 01:51:28;;;;;;;6.80;5.47;;;;;;;;;;5115012;28;20028;-72
2022/04/03 01:53:53;;;;;;;7.78;5.82;;;;;;;;;;5113909;28;20023;-72
2022/04/03 01:56:19;;;;;;;6.93;5.78;;;;;;;;;;5113193;28;20042;-77
2022/04/03 01:58:44;;;;;;;8.70;6.80;;;;;;;;;;5109348;28;20045;-74
2022/04/03 02:01:09;;;;;;;8.35;5.95;;;;;;;;;;5089346;28;20066;-78
2022/04/03 02:03:35;;;;;;;9.93;6.63;;;;;;;;;;5114377;28;20410;-73
2022/04/03 02:06:00;;;;;;;9.30;6.10;;;;;;;;;;5111289;28;20060;-72
2022/04/03 02:08:26;;;;;;;8.52;6.47;;;;;;;;;;5111939;28;20027;-73
2022/04/03 02:10:52;;;;;;;9.32;6.68;;;;;;;;;;5112426;28;20038;-72
2022/04/03 02:13:17;;;;;;;9.27;6.80;;;;;;;;;;5112080;28;20490;-73
2022/04/03 02:15:43;;;;;;;10.52;7.35;;;;;;;;;;5112914;28;20024;-74
2022/04/03 02:18:09;;;;;;;8.82;7.13;;;;;;;;;;5112412;28;20140;-74
2022/04/03 02:20:35;;;;;;;8.68;6.40;;;;;;;;;;5100365;28;20028;-73
2022/04/03 02:23:00;;;;;;;10.40;7.10;;;;;;;;;;5100916;28;20491;-72
2022/04/03 02:25:25;;;;;;;8.20;6.18;;;;;;;;;;5113331;28;20061;-73
2022/04/03 02:27:52;;;;;;;11.20;7.22;;;;;;;;;;5108945;28;20346;-72
2022/04/03 02:30:18;;;;;;;8.63;5.72;;;;;;;;;;5108576;28;20039;-73
2022/04/03 02:32:43;;;;;;;9.27;7.20;;;;;;;;;;5112896;28;20023;-73
2022/04/03 02:35:10;;;;;;;9.55;5.95;;;;;;;;;;5112858;28;20038;-72
2022/04/03 02:37:36;;;;;;;11.02;7.40;;;;;;;;;;5111155;28;20485;-73
2022/04/03 02:40:05;;;;;;;10.23;6.18;;;;;;;;;;5105324;28;20422;-72
2022/04/03 02:42:31;;;;;;;9.57;5.57;;;;;;;;;;5103791;28;20103;-71
2022/04/03 02:44:57;;;;;;;8.52;6.07;;;;;;;;;;5106014;28;20267;-73
2022/04/03 02:47:23;;;;;;;6.78;5.38;;;;;;;;;;5103940;28;20016;-73
2022/04/03 02:49:50;;;;;;;7.90;6.43;;;;;;;;;;5106299;27;20030;-73
2022/04/03 02:52:16;;;;;;;6.93;5.15;;;;;;;;;;5112938;27;20034;-74
2022/04/03 02:54:41;;;;;;;7.55;5.57;;;;;;;;;;5101727;27;20028;-76
2022/04/03 02:57:07;;;;;;;6.30;5.00;;;;;;;;;;5099866;28;20032;-75
2022/04/03 02:59:33;;;;;;;5.90;4.88;;;;;;;;;;5098003;28;20026;-73
2022/04/03 03:01:58;;;;;;;7.95;5.72;;;;;;;;;;5098218;28;20020;-76
2022/04/03 03:04:24;;;;;;;6.53;5.05;;;;;;;;;;5098266;28;20485;-73
2022/04/03 03:06:49;;;;;;;7.00;4.57;;;;;;;;;;5096199;28;20023;-73
2022/04/03 03:09:15;;;;;;;4.65;4.20;;;;;;;;;;5084033;28;20803;-75
2022/04/03 03:11:40;;;;;;;6.20;5.38;;;;;;;;;;5086085;28;20039;-73
2022/04/03 03:14:06;;;;;;;5.78;4.70;;;;;;;;;;5095421;28;20026;-73
2022/04/03 03:16:31;;;;;;;4.65;4.13;;;;;;;;;;5097704;28;20032;-74
2022/04/03 03:18:57;;;;;;;4.55;4.15;;;;;;;;;;5090902;28;20384;-72
2022/04/03 03:21:22;;;;;;;5.07;4.55;;;;;;;;;;5095344;28;20112;-72
2022/04/03 03:23:47;;;;;;;5.03;4.53;;;;;;;;;;5097541;28;20366;-76
2022/04/03 03:26:13;;;;;;;6.13;4.95;;;;;;;;;;5094089;28;20405;-74
2022/04/03 03:28:38;;;;;;;6.95;5.63;;;;;;;;;;5091126;28;20035;-73
2022/04/03 03:31:03;;;;;;;9.10;6.25;;;;;;;;;;5087297;28;20023;-75
2022/04/03 03:33:29;;;;;;;6.90;5.43;;;;;;;;;;5095617;28;20114;-72
2022/04/03 03:35:55;;;;;;;11.13;6.10;;;;;;;;;;5095158;28;20455;-73
2022/04/03 03:38:20;;;;;;;21.83;14.98;;;;;;;;;;5093197;28;20024;-71
2022/04/03 03:40:46;;;;;;;20.92;14.68;;;;;;;;;;5091979;28;20029;-72
2022/04/03 03:43:11;;;;;;;12.35;9.07;;;;;;;;;;5092918;28;20052;-73
2022/04/03 03:45:37;;;;;;;12.40;8.15;;;;;;;;;;5091740;28;20043;-74
2022/04/03 03:48:02;;;;;;;9.35;7.03;;;;;;;;;;5093424;28;20065;-73
2022/04/03 03:50:28;;;;;;;8.98;6.65;;;;;;;;;;5083878;28;20023;-75
2022/04/03 03:52:53;;;;;;;6.30;5.00;;;;;;;;;;5096683;28;20110;-73
2022/04/03 03:55:18;;;;;;;10.15;7.75;;;;;;;;;;5083491;28;20458;-73
2022/04/03 03:57:44;;;;;;;8.32;6.47;;;;;;;;;;5080940;28;20031;-72
2022/04/03 04:00:10;;;;;;;7.38;6.03;;;;;;;;;;5079105;28;20449;-73
2022/04/03 04:02:35;;;;;;;4.80;4.30;;;;;;;;;;5081466;28;20123;-77
2022/04/03 04:05:01;;;;;;;5.10;4.60;;;;;;;;;;5081923;28;20024;-75
2022/04/03 04:07:36;;;;;;;5.45;4.80;;;;;;;;;;5081465;28;20111;-74
2022/04/03 04:10:03;;;;;;;6.60;5.30;;;;;;;;;;5092165;28;20366;-73
2022/04/03 04:12:28;;;;;;;8.57;5.70;;;;;;;;;;5092870;28;20024;-76
2022/04/03 04:14:54;;;;;;;6.70;5.85;;;;;;;;;;5096427;28;20500;-74
2022/04/03 04:17:19;;;;;;;7.78;6.40;;;;;;;;;;5088853;28;20494;-73
2022/04/03 04:19:44;;;;;;;8.63;7.45;;;;;;;;;;5093755;28;20031;-72
2022/04/03 04:22:10;;;;;;;8.63;7.35;;;;;;;;;;5096290;28;20084;-74
2022/04/03 04:24:35;;;;;;;8.00;6.47;;;;;;;;;;5094299;28;20358;-72
2022/04/03 04:27:01;;;;;;;9.30;7.65;;;;;;;;;;5092636;28;20028;-73
2022/04/03 04:29:26;;;;;;;8.60;7.70;;;;;;;;;;5091326;28;20024;-74
2022/04/03 04:31:51;;;;;;;8.48;6.95;;;;;;;;;;5092667;28;20121;-76
2022/04/03 04:34:17;;;;;;;11.80;9.43;;;;;;;;;;5092760;28;20015;-75
2022/04/03 04:36:42;;;;;;;11.65;9.48;;;;;;;;;;5084313;28;20031;-76
2022/04/03 04:39:08;;;;;;;11.38;9.75;;;;;;;;;;5090586;28;20035;-77
2022/04/03 04:41:33;;;;;;;11.30;10.07;;;;;;;;;;5091188;28;20169;-80
2022/04/03 04:43:59;;;;;;;19.15;13.32;;;;;;;;;;5092862;28;20047;-75
2022/04/03 04:46:24;;;;;;;20.58;13.80;;;;;;;;;;5094198;28;20107;-74
2022/04/03 04:48:49;;;;;;;13.88;9.93;;;;;;;;;;5095420;28;20434;-75
2022/04/03 04:51:16;;;;;;;11.48;9.20;;;;;;;;;;5095245;28;20023;-72
2022/04/03 04:53:41;;;;;;;73.57;35.90;;;;;;;;;;5091020;28;20334;-77
2022/04/03 04:56:07;;;;;;;185.73;117.57;;;;;;;;;;5089945;28;20039;-73
2022/04/03 04:58:33;;;;;;;64.13;33.45;;;;;;;;;;5091614;28;20030;-76
2022/04/03 05:00:58;;;;;;;41.30;24.33;;;;;;;;;;5093768;28;20040;-74
2022/04/03 05:03:24;;;;;;;148.40;80.40;;;;;;;;;;5093714;28;20028;-73
2022/04/03 05:05:49;;;;;;;590.55;360.33;;;;;;;;;;5092462;28;20056;-75
2022/04/03 05:08:15;;;;;;;165.40;80.43;;;;;;;;;;5093617;28;20057;-76
2022/04/03 05:10:40;;;;;;;143.20;83.50;;;;;;;;;;5093304;28;20081;-75
2022/04/03 05:13:09;;;;;;;99.38;55.33;;;;;;;;;;5087190;28;20442;-76
2022/04/03 05:15:35;;;;;;;71.68;40.15;;;;;;;;;;5091843;28;20023;-75
2022/04/03 05:18:00;;;;;;;30.42;20.95;;;;;;;;;;5089812;28;20024;-77
2022/04/03 05:20:26;;;;;;;60.00;36.22;;;;;;;;;;5086875;28;20721;-74
2022/04/03 05:22:51;;;;;;;22.23;15.38;;;;;;;;;;5086993;28;20087;-76
2022/04/03 05:25:17;;;;;;;48.13;28.50;;;;;;;;;;5089810;28;20331;-74
2022/04/03 05:27:43;;;;;;;36.53;24.73;;;;;;;;;;5093440;28;20038;-72
2022/04/03 05:30:09;;;;;;;42.55;23.38;;;;;;;;;;5094720;28;20024;-74
2022/04/03 05:32:36;;;;;;;28.10;17.92;;;;;;;;;;5094355;28;20050;-72
2022/04/03 05:35:02;;;;;;;19.10;13.80;;;;;;;;;;5091757;28;20070;-74
2022/04/03 05:37:27;;;;;;;23.92;17.65;;;;;;;;;;5083716;28;20051;-71
2022/04/03 05:39:53;;;;;;;25.55;18.15;;;;;;;;;;5079309;28;20776;-72
2022/04/03 05:42:18;;;;;;;19.08;14.68;;;;;;;;;;5081189;28;20074;-71
2022/04/03 05:44:44;;;;;;;23.70;16.83;;;;;;;;;;5091712;28;20106;-73
2022/04/03 05:47:09;;;;;;;18.75;16.05;;;;;;;;;;5092496;28;20031;-71
2022/04/03 05:49:35;;;;;;;19.90;15.77;;;;;;;;;;5088193;28;20027;-71
2022/04/03 05:52:01;;;;;;;25.38;19.27;;;;;;;;;;5079622;28;20048;-72
2022/04/03 05:54:27;;;;;;;19.45;15.70;;;;;;;;;;5079744;28;20031;-74
2022/04/03 05:56:52;;;;;;;17.90;14.88;;;;;;;;;;5091177;28;20063;-72
2022/04/03 05:59:20;;;;;;;19.63;16.02;;;;;;;;;;5092872;28;20076;-72
2022/04/03 06:01:46;;;;;;;21.40;16.98;;;;;;;;;;5082264;28;20034;-74
2022/04/03 06:04:11;;;;;;;19.17;16.40;;;;;;;;;;5080280;28;20032;-73
2022/04/03 06:06:37;;;;;;;20.70;15.75;;;;;;;;;;5082139;28;20020;-72
2022/04/03 06:09:02;;;;;;;18.25;14.20;;;;;;;;;;5082429;28;20031;-72
2022/04/03 06:11:29;;;;;;;22.73;15.40;;;;;;;;;;5081818;28;20064;-71
2022/04/03 06:13:54;;;;;;;34.85;22.58;;;;;;;;;;5088595;28;20078;-72
2022/04/03 06:16:20;;;;;;;56.95;34.28;;;;;;;;;;5092828;28;20070;-73
2022/04/03 06:18:45;;;;;;;35.60;23.27;;;;;;;;;;5094265;28;20021;-73
2022/04/03 06:21:11;;;;;;;20.88;14.68;;;;;;;;;;5081407;28;20104;-71
2022/04/03 06:23:36;;;;;;;17.98;13.15;;;;;;;;;;5082229;28;20036;-71
2022/04/03 06:26:03;;;;;;;14.00;11.43;;;;;;;;;;5090493;28;20032;-72
2022/04/03 06:28:28;;;;;;;20.33;15.32;;;;;;;;;;5089719;28;20027;-72
2022/04/03 06:30:55;;;;;;;23.73;19.13;;;;;;;;;;5093261;28;20042;-72
2022/04/03 06:33:20;;;;;;;17.58;14.68;;;;;;;;;;5093973;28;20055;-72
2022/04/03 06:35:46;;;;;;;19.02;14.48;;;;;;;;;;5095505;28;20082;-71
2022/04/03 06:38:12;;;;;;;27.73;19.48;;;;;;;;;;5097515;28;20020;-70
2022/04/03 06:40:37;;;;;;;20.02;16.10;;;;;;;;;;5087239;28;20695;-69
2022/04/03 06:43:03;;;;;;;28.23;19.55;;;;;;;;;;5083994;28;20044;-73
2022/04/03 06:45:29;;;;;;;26.45;19.50;;;;;;;;;;5082385;28;20426;-69
2022/04/03 06:47:57;;;;;;;28.67;19.95;;;;;;;;;;5084047;28;20047;-69
2022/04/03 06:50:23;;;;;;;43.15;35.85;;;;;;;;;;5082208;28;20469;-73
2022/04/03 06:52:49;;;;;;;49.25;41.70;;;;;;;;;;5084091;28;20032;-71
2022/04/03 06:55:14;;;;;;;35.95;31.77;;;;;;;;;;5082627;28;20027;-69
2022/04/03 06:57:40;;;;;;;105.00;69.25;;;;;;;;;;5090962;28;20397;-75
2022/04/03 07:00:06;;;;;;;62.38;44.95;;;;;;;;;;5093850;28;20055;-71
2022/04/03 07:02:32;;;;;;;51.65;37.75;;;;;;;;;;5094369;28;20028;-72
2022/04/03 07:04:57;;;;;;;31.35;20.77;;;;;;;;;;5097705;28;20055;-69
2022/04/03 07:07:23;;;;;;;21.50;14.80;;;;;;;;;;5095382;28;20422;-69
2022/04/03 07:09:49;;;;;;;22.63;12.93;;;;;;;;;;5097555;28;20140;-69
2022/04/03 07:12:14;;;;;;;16.27;11.68;;;;;;;;;;5085188;28;20439;-73
2022/04/03 07:14:40;;;;;;;16.05;11.45;;;;;;;;;;5082201;28;20026;-71
2022/04/03 07:17:06;;;;;;;28.88;18.15;;;;;;;;;;5085293;28;20024;-71
2022/04/03 07:19:31;;;;;;;14.07;10.45;;;;;;;;;;5083593;28;20019;-71
2022/04/03 07:21:57;;;;;;;19.02;13.80;;;;;;;;;;5091606;28;20631;-72
2022/04/03 07:24:23;;;;;;;27.38;16.65;;;;;;;;;;5092704;28;20042;-70
2022/04/03 07:26:49;;;;;;;17.08;12.77;;;;;;;;;;5094247;28;20024;-70
2022/04/03 07:29:15;;;;;;;15.30;11.52;;;;;;;;;;5094506;28;20023;-70
2022/04/03 07:31:41;;;;;;;23.73;16.83;;;;;;;;;;5093303;28;20082;-70
2022/04/03 07:34:06;;;;;;;25.95;18.48;;;;;;;;;;5091125;28;20043;-69
2022/04/03 07:36:31;;;;;;;24.63;17.20;;;;;;;;;;5082413;28;20438;-70
2022/04/03 07:38:57;;;;;;;38.35;25.92;;;;;;;;;;5088829;28;20072;-67
2022/04/03 07:41:22;;;;;;;31.60;21.70;;;;;;;;;;5095749;28;20695;-68
2022/04/03 07:43:48;;;;;;;21.90;16.75;;;;;;;;;;5088198;28;20054;-70
2022/04/03 07:46:16;;;;;;;26.58;18.13;;;;;;;;;;5095976;28;20027;-73
2022/04/03 07:48:41;;;;;;;32.05;21.95;;;;;;;;;;5089305;28;20988;-72
2022/04/03 07:51:07;;;;;;;21.55;14.90;;;;;;;;;;5086395;28;20027;-71
2022/04/03 07:53:32;;;;;;;18.92;12.95;;;;;;;;;;5090839;28;20503;-70
2022/04/03 07:55:58;;;;;;;21.05;14.50;;;;;;;;;;5085319;28;20031;-71
2022/04/03 07:58:23;;;;;;;24.63;16.73;;;;;;;;;;5090765;28;20455;-70
2022/04/03 08:00:48;;;;;;;21.63;14.27;;;;;;;;;;5096329;28;20016;-71
2022/04/03 08:03:14;;;;;;;19.20;12.90;;;;;;;;;;5094902;28;20031;-70
2022/04/03 08:05:40;;;;;;;12.98;9.65;;;;;;;;;;5094189;28;20027;-72
2022/04/03 08:08:05;;;;;;;14.93;10.75;;;;;;;;;;5092371;28;20354;-72
2022/04/03 08:10:31;;;;;;;23.95;16.35;;;;;;;;;;5095791;28;20036;-70
2022/04/03 08:12:56;;;;;;;27.80;19.05;;;;;;;;;;5094303;28;20036;-70
2022/04/03 08:15:22;;;;;;;28.95;18.25;;;;;;;;;;5095150;28;20450;-70
2022/04/03 08:17:47;;;;;;;22.92;13.70;;;;;;;;;;5084934;28;20078;-71
2022/04/03 08:20:16;;;;;;;22.63;13.23;;;;;;;;;;5082597;28;20035;-71
2022/04/03 08:22:41;;;;;;;19.67;12.25;;;;;;;;;;5095006;28;20091;-71
2022/04/03 08:25:07;;;;;;;26.08;15.73;;;;;;;;;;5084436;28;20382;-72
2022/04/03 08:27:49;;;;;;;26.30;14.40;;;;;;;;;;5080016;28;20034;-71
2022/04/03 08:30:16;;;;;;;20.65;12.68;;;;;;;;;;5081037;28;20022;-70
2022/04/03 08:32:42;;;;;;;31.20;19.25;;;;;;;;;;5083549;28;20030;-71
2022/04/03 08:35:07;;;;;;;18.17;11.98;;;;;;;;;;5080818;28;20111;-72
2022/04/03 08:37:33;;;;;;;19.17;12.98;;;;;;;;;;5080297;28;20446;-74
2022/04/03 08:39:59;;;;;;;30.42;18.23;;;;;;;;;;5083105;28;20126;-70
2022/04/03 08:42:24;;;;;;;35.95;21.65;;;;;;;;;;5084371;28;20359;-70
2022/04/03 08:44:50;;;;;;;28.08;16.67;;;;;;;;;;5084153;28;20027;-69
2022/04/03 08:47:19;;;;;;;30.42;16.23;;;;;;;;;;5081698;28;20027;-72
2022/04/03 08:49:46;;;;;;;19.35;12.73;;;;;;;;;;5080832;28;20446;-71
2022/04/03 08:52:12;;;;;;;26.27;15.10;;;;;;;;;;5090451;28;20027;-70
2022/04/03 08:54:38;;;;;;;21.90;15.30;;;;;;;;;;5095916;28;20035;-69
2022/04/03 08:57:03;;;;;;;20.08;14.18;;;;;;;;;;5091645;28;20700;-73
2022/04/03 08:59:29;;;;;;;21.13;13.80;;;;;;;;;;5080003;28;20043;-71
2022/04/03 09:01:54;;;;;;;25.83;18.02;;;;;;;;;;5080421;28;20084;-69
2022/04/03 09:04:21;;;;;;;24.45;20.27;;;;;;;;;;5077663;28;20043;-69
2022/04/03 09:06:53;;;;;;;17.15;14.55;;;;;;;;;;5079839;28;20049;-72
2022/04/03 09:09:22;;;;;;;22.63;19.52;;;;;;;;;;5085035;28;20343;-72
2022/04/03 09:12:05;;;;;;;26.02;18.30;;;;;;;;;;5088549;28;20049;-72
2022/04/03 09:14:30;;;;;;;25.42;18.58;;;;;;;;;;5089568;28;20051;-71
2022/04/03 09:16:55;;;;;;;23.45;16.38;;;;;;;;;;5082999;28;20441;-69
2022/04/03 09:19:30;;;;;;;22.70;13.27;;;;;;;;;;5086041;28;20043;-72
2022/04/03 09:21:56;;;;;;;20.30;15.60;;;;;;;;;;5076821;28;20404;-71
2022/04/03 09:24:21;;;;;;;14.23;10.27;;;;;;;;;;5075246;28;20031;-71
2022/04/03 09:26:56;;;;;;;18.10;14.15;;;;;;;;;;5090636;28;20030;-69
2022/04/03 09:29:21;;;;;;;16.45;11.00;;;;;;;;;;5092856;28;20114;-73
2022/04/03 09:31:47;;;;;;;21.63;15.13;;;;;;;;;;5083200;28;20186;-72
2022/04/03 09:34:20;;;;;;;23.73;15.77;;;;;;;;;;5096578;27;20027;-70
2022/04/03 09:37:01;;;;;;;17.45;12.95;;;;;;;;;;5093751;28;20165;-72
2022/04/03 09:39:28;;;;;;;20.20;16.13;;;;;;;;;;5093348;28;20016;-71
2022/04/03 09:41:55;;;;;;;28.55;20.75;;;;;;;;;;5092157;28;20434;-72
2022/04/03 09:44:25;;;;;;;18.33;14.27;;;;;;;;;;5088815;28;20051;-70
2022/04/03 09:46:50;;;;;;;;;;;;;;;;;;5087303;28;20020;-72
2022/04/03 09:49:23;;;;;;;18.43;13.23;;;;;;;;;;5080696;28;19918;-74
2022/04/03 09:51:49;;;;;;;24.70;15.90;;;;;;;;;;5085816;28;20268;-78
2022/04/03 09:54:19;;;;;;;19.65;12.82;;;;;;;;;;5076979;28;20503;-75
2022/04/03 09:56:44;;;;;;;21.05;15.20;;;;;;;;;;5076951;28;20050;-73
2022/04/03 09:59:10;;;;;;;26.67;17.55;;;;;;;;;;5074853;28;20043;-76
2022/04/03 10:01:38;;;;;;;26.05;17.85;;;;;;;;;;5082909;28;20028;-76
2022/04/03 10:04:05;;;;;;;29.42;19.17;;;;;;;;;;5084777;28;20027;-78
2022/04/03 10:06:31;;;;;;;28.92;20.08;;;;;;;;;;5090637;28;20043;-80
2022/04/03 10:08:57;;;;;;;25.60;17.30;;;;;;;;;;5088937;28;20044;-76
2022/04/03 10:11:22;;;;;;;20.33;15.07;;;;;;;;;;5083221;28;20019;-77
2022/04/03 10:13:48;;;;;;;42.63;24.73;;;;;;;;;;5086358;28;20646;-77
2022/04/03 10:16:15;;;;;;;29.95;20.40;;;;;;;;;;5082149;28;20078;-76
2022/04/03 10:18:40;;;;;;;36.13;20.58;;;;;;;;;;5081399;28;20437;-77
2022/04/03 10:21:11;;;;;;;23.25;16.10;;;;;;;;;;5083344;28;20031;-74
2022/04/03 10:23:38;;;;;;;30.75;20.05;;;;;;;;;;5082681;28;20028;-74
2022/04/03 10:26:05;;;;;;;19.20;14.20;;;;;;;;;;5083036;28;20123;-77
2022/04/03 10:28:31;;;;;;;25.25;18.52;;;;;;;;;;5080410;28;20021;-75
2022/04/03 10:31:00;;;;;;;53.95;32.28;;;;;;;;;;5084674;28;20095;-79
2022/04/03 10:33:34;;;;;;;32.08;18.40;;;;;;;;;;5081140;28;20047;-75
2022/04/03 10:36:03;;;;;;;18.52;14.85;;;;;;;;;;5080457;28;20042;-75
2022/04/03 10:38:39;;;;;;;25.58;17.35;;;;;;;;;;5083343;28;20020;-81
2022/04/03 10:41:06;;;;;;;30.27;20.58;;;;;;;;;;5084765;28;20016;-80
2022/04/03 10:43:36;;;;;;;18.92;14.32;;;;;;;;;;5085009;28;20695;-76
2022/04/03 10:46:01;;;;;;;18.33;12.70;;;;;;;;;;5091861;28;20514;-84
2022/04/03 10:48:31;;;;;;;15.93;12.70;;;;;;;;;;5092552;28;20134;-78
2022/04/03 10:51:06;;;;;;;17.05;12.88;;;;;;;;;;5093971;28;20470;-70
2022/04/03 10:53:39;;;;;;;21.13;14.77;;;;;;;;;;5091668;28;20028;-71
2022/04/03 10:56:09;;;;;;;19.02;13.00;;;;;;;;;;5090021;28;20031;-76
2022/04/03 10:58:39;;;;;;;21.95;14.75;;;;;;;;;;5090834;28;20032;-71
2022/04/03 11:01:04;;;;;;;26.45;18.30;;;;;;;;;;5083565;28;20098;-71
2022/04/03 11:03:31;;;;;;;23.90;16.90;;;;;;;;;;5085076;28;20213;-69
2022/04/03 11:05:57;;;;;;;23.30;16.98;;;;;;;;;;5081714;28;20031;-71
2022/04/03 11:08:42;;;;;;;32.95;21.88;;;;;;;;;;5078200;28;20096;-70
2022/04/03 11:11:08;;;;;;;37.42;24.50;;;;;;;;;;5080219;28;20335;-69
2022/04/03 11:13:34;;;;;;;21.52;16.98;;;;;;;;;;5086632;28;20032;-76
2022/04/03 11:16:00;;;;;;;26.13;18.80;;;;;;;;;;5085775;28;20028;-72
2022/04/03 11:18:29;;;;;;;23.48;14.93;;;;;;;;;;5083747;28;20074;-74
2022/04/03 11:21:07;;;;;;;37.72;24.60;;;;;;;;;;5083060;28;20032;-73
2022/04/03 11:23:34;;;;;;;36.47;21.40;;;;;;;;;;5078627;28;20078;-77
2022/04/03 11:26:00;;;;;;;27.10;19.98;;;;;;;;;;5080038;28;20050;-69
2022/04/03 11:28:26;;;;;;;31.00;21.15;;;;;;;;;;5083201;28;20739;-71
2022/04/03 11:30:51;;;;;;;21.40;15.93;;;;;;;;;;5082819;28;20098;-70
2022/04/03 11:33:17;;;;;;;21.42;16.25;;;;;;;;;;5076915;28;20716;-74
2022/04/03 11:35:42;;;;;;;30.63;20.75;;;;;;;;;;5079004;28;20443;-78
2022/04/03 11:38:09;;;;;;;35.03;22.67;;;;;;;;;;5077127;28;20038;-70
2022/04/03 11:40:34;;;;;;;40.00;24.73;;;;;;;;;;5082259;28;20030;-70
2022/04/03 11:43:09;;;;;;;47.38;28.23;;;;;;;;;;5080416;28;20059;-72
2022/04/03 11:45:35;;;;;;;33.40;20.27;;;;;;;;;;5078724;28;20097;-72
2022/04/03 11:48:20;;;;;;;29.52;19.27;;;;;;;;;;5083526;28;20426;-76
2022/04/03 11:50:45;;;;;;;40.00;26.10;;;;;;;;;;5093759;28;20027;-76
2022/04/03 11:53:11;;;;;;;36.97;24.50;;;;;;;;;;5095894;28;20101;-70
2022/04/03 11:55:37;;;;;;;42.53;26.55;;;;;;;;;;5097237;28;20019;-71
2022/04/03 11:58:04;;;;;;;47.63;30.85;;;;;;;;;;5092616;28;20032;-71
2022/04/03 12:00:32;;;;;;;24.20;17.63;;;;;;;;;;5094133;28;20053;-70
2022/04/03 12:02:57;;;;;;;35.55;23.60;;;;;;;;;;5082884;28;20115;-75
2022/04/03 12:05:23;;;;;;;57.10;35.85;;;;;;;;;;5087355;28;20501;-72
2022/04/03 12:07:49;;;;;;;59.17;37.90;;;;;;;;;;5089410;28;20462;-71
2022/04/03 12:10:28;;;;;;;46.47;31.13;;;;;;;;;;5084574;28;20023;-71
2022/04/03 12:12:57;;;;;;;40.40;25.33;;;;;;;;;;5089139;28;20133;-74
2022/04/03 12:15:24;;;;;;;36.95;21.40;;;;;;;;;;5092487;28;20433;-70
2022/04/03 12:17:56;;;;;;;52.22;34.45;;;;;;;;;;5088749;28;20043;-73
2022/04/03 12:20:22;;;;;;;39.80;25.20;;;;;;;;;;5087550;28;20043;-70
2022/04/03 12:22:51;;;;;;;21.92;16.25;;;;;;;;;;5087522;28;20426;-71
2022/04/03 12:25:17;;;;;;;22.27;17.35;;;;;;;;;;5093047;28;20027;-73
2022/04/03 12:27:42;;;;;;;22.85;17.75;;;;;;;;;;5079703;28;20047;-75
2022/04/03 12:30:09;;;;;;;38.25;22.50;;;;;;;;;;5083822;28;20033;-69
2022/04/03 12:32:36;;;;;;;38.55;26.50;;;;;;;;;;5081957;28;20066;-69
2022/04/03 12:35:05;;;;;;;38.15;26.30;;;;;;;;;;5088296;28;20172;-71
2022/04/03 12:37:34;;;;;;;43.50;28.73;;;;;;;;;;5092685;28;20032;-69
2022/04/03 12:40:00;;;;;;;41.33;27.58;;;;;;;;;;5092117;28;20040;-70
2022/04/03 12:42:32;;;;;;;36.25;23.15;;;;;;;;;;5091917;28;20055;-71
2022/04/03 12:44:58;;;;;;;36.78;22.83;;;;;;;;;;5092425;28;20533;-71
2022/04/03 12:47:29;;;;;;;38.40;24.60;;;;;;;;;;5091238;28;20153;-75
2022/04/03 12:50:07;;;;;;;42.42;27.08;;;;;;;;;;5090292;28;20091;-70
2022/04/03 12:52:48;;;;;;;38.90;25.15;;;;;;;;;;5089755;28;20024;-72
2022/04/03 13:00:51;;;;;;;57.40;31.50;;;;;;;;;;5081793;28;20446;-70
2022/04/03 13:03:29;;;;;;;32.65;21.85;;;;;;;;;;5079219;28;20043;-73
2022/04/03 13:06:14;;;;;;;34.40;22.55;;;;;;;;;;5083289;28;20031;-74
2022/04/03 13:08:40;;;;;;;47.53;30.23;;;;;;;;;;5071407;28;20031;-70
2022/04/03 13:11:06;;;;;;;37.33;26.05;;;;;;;;;;5080837;28;20866;-69
2022/04/03 13:13:33;;;;;;;22.33;16.60;;;;;;;;;;5079894;28;20027;-69
2022/04/03 13:15:59;;;;;;;28.38;17.73;;;;;;;;;;5080973;28;20032;-69
2022/04/03 13:18:24;;;;;;;47.08;29.42;;;;;;;;;;5081353;28;20335;-68
2022/04/03 13:20:50;;;;;;;60.08;38.95;;;;;;;;;;5082951;28;20020;-69
2022/04/03 13:23:16;;;;;;;32.15;20.92;;;;;;;;;;5081450;28;20450;-75
2022/04/03 13:25:41;;;;;;;29.17;20.05;;;;;;;;;;5077025;28;20020;-75
2022/04/03 13:28:07;;;;;;;26.92;18.15;;;;;;;;;;5079662;28;20042;-71
2022/04/03 13:30:34;;;;;;;27.52;17.80;;;;;;;;;;5079534;28;20024;-75
2022/04/03 13:32:59;;;;;;;23.80;16.55;;;;;;;;;;5080806;28;20042;-68
2022/04/03 13:35:25;;;;;;;45.20;27.40;;;;;;;;;;5081700;28;20102;-69
2022/04/03 13:37:51;;;;;;;43.05;26.83;;;;;;;;;;5081691;28;20107;-70
2022/04/03 13:40:17;;;;;;;54.05;27.13;;;;;;;;;;5078466;28;20023;-72
2022/04/03 13:42:42;;;;;;;31.88;19.35;;;;;;;;;;5077907;28;20059;-71
2022/04/03 13:45:08;;;;;;;30.85;21.38;;;;;;;;;;5079072;28;21200;-77
2022/04/03 13:47:33;;;;;;;40.03;24.63;;;;;;;;;;5080486;28;20083;-72
2022/04/03 13:49:59;;;;;;;30.08;20.52;;;;;;;;;;5080865;28;20032;-72
2022/04/03 13:52:24;;;;;;;28.33;20.20;;;;;;;;;;5079554;28;20039;-70
2022/04/03 13:54:50;;;;;;;31.75;20.30;;;;;;;;;;5078424;28;20028;-69
2022/04/03 13:57:15;;;;;;;32.47;20.52;;;;;;;;;;5078549;28;20024;-72
2022/04/03 13:59:40;;;;;;;38.13;22.38;;;;;;;;;;5081490;28;20034;-74
2022/04/03 14:02:06;;;;;;;29.77;19.23;;;;;;;;;;5086135;28;20441;-73
2022/04/03 14:04:31;;;;;;;75.88;34.95;;;;;;;;;;5088807;28;20059;-79
2022/04/03 14:06:57;;;;;;;33.42;20.40;;;;;;;;;;5093931;28;20065;-73
2022/04/03 14:09:22;;;;;;;64.40;35.97;;;;;;;;;;5082587;28;20513;-75
2022/04/03 14:11:48;;;;;;;32.08;22.40;;;;;;;;;;5080418;28;20032;-80
2022/04/03 14:14:13;;;;;;;58.35;31.95;;;;;;;;;;5080120;28;20134;-73
2022/04/03 14:16:39;;;;;;;52.45;26.10;;;;;;;;;;5080357;28;20501;-78
2022/04/03 14:19:04;;;;;;;43.15;24.92;;;;;;;;;;5078048;28;20032;-78
2022/04/03 14:21:32;;;;;;;41.70;25.13;;;;;;;;;;5078931;28;20453;-75
2022/04/03 14:23:58;;;;;;;42.70;26.90;;;;;;;;;;5080778;28;20071;-77
2022/04/03 14:26:23;;;;;;;58.05;29.77;;;;;;;;;;5077844;28;20051;-74